createdAt,value
2019-02-18T00:00:18.302Z,101368.70
2019-02-18T00:02:48.581Z,101376.27
2019-02-18T00:05:18.185Z,101376.27
2019-02-18T00:07:48.497Z,101378.45
2019-02-18T00:10:21.861Z,101380.59
2019-02-18T00:12:56.044Z,101391.70
2019-02-18T00:15:26.799Z,101393.84
2019-02-18T00:17:55.927Z,101390.02
2019-02-18T00:20:27.565Z,101394.09
2019-02-18T00:22:58.742Z,101397.05
2019-02-18T00:25:31.035Z,101396.50
2019-02-18T00:28:02.202Z,101399.78
2019-02-18T00:30:33.438Z,101388.68
2019-02-18T00:33:02.645Z,101394.94
2019-02-18T00:35:34.053Z,101394.69
2019-02-18T00:38:04.373Z,101393.08
2019-02-18T00:40:36.894Z,101388.78
2019-02-18T00:43:09.641Z,101391.24
2019-02-18T00:45:39.804Z,101392.34
2019-02-18T00:48:12.147Z,101385.83
2019-02-18T00:53:23.771Z,101379.63
2019-02-18T00:55:54.025Z,101377.22
2019-02-18T00:58:24.019Z,101372.06
2019-02-18T01:00:55.562Z,101373.69
2019-02-18T01:03:25.816Z,101373.99
2019-02-18T01:05:57.392Z,101373.69
2019-02-18T01:08:27.089Z,101368.26
2019-02-18T01:10:57.004Z,101369.34
2019-02-18T01:13:30.861Z,101368.50
2019-02-18T01:16:01.565Z,101369.03
2019-02-18T01:18:32.761Z,101372.83
2019-02-18T01:21:07.140Z,101367.40
2019-02-18T01:23:42.253Z,101364.38
2019-02-18T01:26:12.525Z,101366.52
2019-02-18T01:28:44.402Z,101370.57
2019-02-18T01:31:16.442Z,101368.66
2019-02-18T01:33:49.244Z,101363.78
2019-02-18T01:36:23.006Z,101355.34
2019-02-18T01:38:52.818Z,101355.87
2019-02-18T01:41:25.236Z,101357.78
2019-02-18T01:43:56.149Z,101364.56
2019-02-18T01:46:25.615Z,101356.95
2019-02-18T01:48:57.230Z,101357.78
2019-02-18T01:51:28.620Z,101360.50
2019-02-18T01:53:58.269Z,101363.20
2019-02-18T01:56:29.486Z,101354.52
2019-02-18T01:59:00.853Z,101354.52
2019-02-18T02:01:30.057Z,101353.98
2019-02-18T02:04:00.157Z,101358.36
2019-02-18T02:06:29.779Z,101355.91
2019-02-18T02:08:58.899Z,101361.65
2019-02-18T02:11:32.602Z,101356.49
2019-02-18T02:14:02.904Z,101359.20
2019-02-18T02:16:33.248Z,101347.83
2019-02-18T02:19:05.784Z,101353.52
2019-02-18T02:21:37.971Z,101350.55
2019-02-18T02:24:08.112Z,101350.55
2019-02-18T02:26:38.212Z,101351.66
2019-02-18T02:29:07.830Z,101347.84
2019-02-18T02:31:38.391Z,101348.63
2019-02-18T02:34:13.384Z,101349.13
2019-02-18T02:36:42.608Z,101342.55
2019-02-18T02:39:14.042Z,101349.59
2019-02-18T02:41:44.818Z,101345.78
2019-02-18T02:44:16.351Z,101335.13
2019-02-18T02:46:47.155Z,101331.05
2019-02-18T02:49:18.585Z,101331.27
2019-02-18T02:51:51.685Z,101330.16
2019-02-18T02:54:22.651Z,101326.34
2019-02-18T02:56:53.142Z,101317.64
2019-02-18T02:59:28.539Z,101321.13
2019-02-18T03:02:03.946Z,101321.13
2019-02-18T03:04:33.771Z,101321.69
2019-02-18T03:07:04.679Z,101319.75
2019-02-18T03:09:36.713Z,101323.77
2019-02-18T03:12:07.180Z,101322.40
2019-02-18T03:14:37.467Z,101326.69
2019-02-18T03:17:12.023Z,101319.33
2019-02-18T03:19:45.100Z,101316.88
2019-02-18T03:22:15.223Z,101307.89
2019-02-18T03:25:55.690Z,101315.19
2019-02-18T03:28:43.512Z,101306.26
2019-02-18T03:31:19.435Z,101312.73
2019-02-18T03:33:58.945Z,101304.91
2019-02-18T03:36:28.817Z,101300.00
2019-02-18T03:38:59.550Z,101301.36
2019-02-18T03:41:29.709Z,101302.72
2019-02-18T03:44:02.881Z,101300.00
2019-02-18T03:49:10.845Z,101302.98
2019-02-18T03:51:43.066Z,101302.19
2019-02-18T03:54:17.839Z,101301.05
2019-02-18T03:56:52.303Z,101306.73
2019-02-18T03:59:22.563Z,101303.22
2019-02-18T04:01:53.391Z,101304.53
2019-02-18T04:04:25.214Z,101305.58
2019-02-18T04:06:54.760Z,101309.90
2019-02-18T04:09:24.244Z,101297.12
2019-02-18T04:11:56.195Z,101294.41
2019-02-18T04:14:26.021Z,101285.75
2019-02-18T04:16:56.023Z,101286.83
2019-02-18T04:19:27.981Z,101286.00
2019-02-18T04:21:57.355Z,101291.70
2019-02-18T04:24:31.919Z,101288.19
2019-02-18T04:27:02.451Z,101292.25
2019-02-18T04:29:31.536Z,101297.63
2019-02-18T04:32:04.312Z,101300.64
2019-02-18T04:34:34.354Z,101309.55
2019-02-18T04:37:03.593Z,101308.20
2019-02-18T04:39:33.518Z,101308.14
2019-02-18T04:42:02.846Z,101301.09
2019-02-18T04:44:33.064Z,101301.62
2019-02-18T04:47:02.720Z,101299.73
2019-02-18T04:49:31.782Z,101298.38
2019-02-18T04:52:02.497Z,101295.67
2019-02-18T04:54:33.427Z,101301.62
2019-02-18T04:57:02.576Z,101293.23
2019-02-18T04:59:32.306Z,101300.59
2019-02-18T05:02:02.949Z,101302.47
2019-02-18T05:04:33.897Z,101302.77
2019-02-18T05:07:06.081Z,101303.05
2019-02-18T05:09:35.689Z,101297.38
2019-02-18T05:12:05.410Z,101302.84
2019-02-18T05:14:39.804Z,101300.72
2019-02-18T05:17:10.187Z,101292.58
2019-02-18T05:19:39.757Z,101295.56
2019-02-18T05:22:09.553Z,101295.31
2019-02-18T05:24:42.582Z,101287.73
2019-02-18T05:27:13.577Z,101293.95
2019-02-18T05:29:46.492Z,101297.22
2019-02-18T05:32:16.675Z,101307.52
2019-02-18T05:34:48.242Z,101299.11
2019-02-18T05:37:17.595Z,101295.56
2019-02-18T05:39:47.604Z,101303.17
2019-02-18T05:42:18.059Z,101301.81
2019-02-18T05:44:47.914Z,101302.64
2019-02-18T05:47:17.929Z,101309.95
2019-02-18T05:49:48.541Z,101305.05
2019-02-18T05:52:18.565Z,101310.78
2019-02-18T05:54:47.676Z,101301.29
2019-02-18T05:57:17.942Z,101299.38
2019-02-18T05:59:49.529Z,101296.92
2019-02-18T06:02:18.834Z,101299.94
2019-02-18T06:04:51.613Z,101294.26
2019-02-18T06:07:24.378Z,101301.87
2019-02-18T06:09:54.632Z,101308.65
2019-02-18T06:12:24.514Z,101295.09
2019-02-18T06:14:54.990Z,101303.75
2019-02-18T06:17:26.293Z,101296.14
2019-02-18T06:19:55.994Z,101294.53
2019-02-18T06:22:26.434Z,101300.20
2019-02-18T06:24:59.937Z,101303.44
2019-02-18T06:27:33.911Z,101308.06
2019-02-18T06:30:11.445Z,101306.14
2019-02-18T06:32:46.745Z,101304.22
2019-02-18T06:35:16.474Z,101309.62
2019-02-18T06:37:48.981Z,101305.25
2019-02-18T06:40:21.524Z,101311.48
2019-02-18T06:42:52.704Z,101312.53
2019-02-18T06:49:41.264Z,101317.44
2019-02-18T06:52:11.224Z,101311.18
2019-02-18T06:54:41.663Z,101313.36
2019-02-18T06:57:19.627Z,101312.84
2019-02-18T06:59:56.688Z,101305.25
2019-02-18T07:02:33.069Z,101314.74
2019-02-18T07:05:07.187Z,101312.03
2019-02-18T07:07:45.888Z,101308.22
2019-02-18T07:10:24.011Z,101318.78
2019-02-18T07:12:54.805Z,101317.69
2019-02-18T07:15:25.841Z,101327.64
2019-02-18T07:17:56.701Z,101326.84
2019-02-18T07:20:30.089Z,101332.48
2019-02-18T07:23:02.776Z,101334.92
2019-02-18T07:25:33.786Z,101338.16
2019-02-18T07:28:08.136Z,101339.52
2019-02-18T07:30:43.081Z,101344.41
2019-02-18T07:33:12.676Z,101347.70
2019-02-18T07:35:42.675Z,101351.02
2019-02-18T07:38:17.648Z,101348.94
2019-02-18T07:40:47.445Z,101354.74
2019-02-18T07:43:17.875Z,101361.87
2019-02-18T07:45:48.273Z,101352.75
2019-02-18T07:48:19.307Z,101359.66
2019-02-18T07:50:48.447Z,101357.84
2019-02-18T07:53:22.931Z,101356.05
2019-02-18T07:55:53.466Z,101356.42
2019-02-18T07:58:24.680Z,101360.77
2019-02-18T08:00:55.456Z,101366.77
2019-02-18T08:03:25.850Z,101361.09
2019-02-18T08:05:55.918Z,101354.36
2019-02-18T08:11:00.290Z,101361.45
2019-02-18T08:13:40.197Z,101363.65
2019-02-18T08:16:10.376Z,101361.71
2019-02-18T08:18:48.607Z,101369.30
2019-02-18T08:21:22.144Z,101366.31
2019-02-18T08:24:00.098Z,101369.86
2019-02-18T08:26:25.746Z,101378.27
2019-02-18T08:28:56.988Z,101377.23
2019-02-18T08:31:34.336Z,101381.09
2019-02-18T08:34:05.574Z,101373.53
2019-02-18T08:36:38.539Z,101372.49
2019-02-18T08:39:10.422Z,101376.05
2019-02-18T08:41:44.682Z,101377.78
2019-02-18T08:47:02.831Z,101385.20
2019-02-18T08:49:32.640Z,101385.52
2019-02-18T08:52:06.683Z,101381.19
2019-02-18T08:54:40.448Z,101385.58
2019-02-18T08:57:21.737Z,101388.59
2019-02-18T08:59:56.572Z,101385.41
2019-02-18T09:02:39.295Z,101385.73
2019-02-18T09:05:12.362Z,101383.33
2019-02-18T09:07:44.000Z,101393.41
2019-02-18T09:10:15.639Z,101400.47
2019-02-18T09:12:46.599Z,101402.67
2019-02-18T09:15:16.264Z,101401.61
2019-02-18T09:17:57.887Z,101397.02
2019-02-18T09:20:28.078Z,101399.22
2019-02-18T09:23:08.125Z,101399.22
2019-02-18T09:25:43.513Z,101401.71
2019-02-18T09:28:12.725Z,101402.25
2019-02-18T09:30:45.349Z,101407.20
2019-02-18T09:33:16.070Z,101407.20
2019-02-18T09:35:49.215Z,101409.36
2019-02-18T09:38:24.996Z,101402.34
2019-02-18T09:40:59.344Z,101399.89
2019-02-18T09:43:35.873Z,101392.31
2019-02-18T09:46:06.913Z,101395.87
2019-02-18T09:48:38.270Z,101399.80
2019-02-18T09:51:10.296Z,101401.48
2019-02-18T09:53:51.843Z,101401.79
2019-02-18T09:56:24.364Z,101408.66
2019-02-18T09:58:55.969Z,101403.23
2019-02-18T10:01:31.495Z,101408.14
2019-02-18T10:04:06.391Z,101408.19
2019-02-18T10:06:37.889Z,101410.60
2019-02-18T10:09:07.706Z,101414.45
2019-02-18T10:11:37.438Z,101424.23
2019-02-18T10:14:56.073Z,101434.06
2019-02-18T10:17:25.054Z,101431.64
2019-02-18T10:20:02.015Z,101426.16
2019-02-18T10:22:31.800Z,101421.69
2019-02-18T10:25:01.956Z,101430.59
2019-02-18T10:27:33.097Z,101431.89
2019-02-18T10:30:02.160Z,101432.67
2019-02-18T10:33:38.161Z,101434.03
2019-02-18T10:36:07.407Z,101430.80
2019-02-18T10:38:40.180Z,101433.29
2019-02-18T10:41:14.055Z,101444.17
2019-02-18T10:43:48.072Z,101436.85
2019-02-18T10:46:17.677Z,101436.07
2019-02-18T10:48:48.142Z,101433.44
2019-02-18T10:51:18.789Z,101432.95
2019-02-18T10:53:48.835Z,101438.70
2019-02-18T10:56:19.015Z,101437.36
2019-02-18T10:58:49.037Z,101437.70
2019-02-18T11:01:18.873Z,101438.05
2019-02-18T11:03:55.288Z,101449.05
2019-02-18T11:06:28.092Z,101451.83
2019-02-18T11:09:00.563Z,101454.92
2019-02-18T11:11:31.576Z,101449.52
2019-02-18T11:14:01.357Z,101448.23
2019-02-18T11:16:47.968Z,101447.22
2019-02-18T11:22:10.191Z,101448.98
2019-02-18T11:24:43.382Z,101455.28
2019-02-18T11:27:12.927Z,101453.45
2019-02-18T11:29:42.579Z,101458.37
2019-02-18T11:32:12.777Z,101463.28
2019-02-18T11:34:41.981Z,101457.83
2019-02-18T11:37:15.498Z,101464.67
2019-02-18T11:39:47.855Z,101464.11
2019-02-18T11:42:20.361Z,101463.31
2019-02-18T11:48:51.228Z,101466.63
2019-02-18T11:51:22.697Z,101468.81
2019-02-18T11:53:53.517Z,101468.28
2019-02-18T11:56:24.141Z,101466.69
2019-02-18T11:58:53.398Z,101468.31
2019-02-18T12:01:24.260Z,101471.30
2019-02-18T12:03:59.236Z,101471.86
2019-02-18T12:06:33.990Z,101469.94
2019-02-18T12:09:09.794Z,101475.68
2019-02-18T12:18:19.490Z,101457.45
2019-02-18T12:20:50.108Z,101461.53
2019-02-18T12:23:27.325Z,101466.15
2019-02-18T12:25:57.015Z,101461.20
2019-02-18T12:28:29.067Z,101465.53
2019-02-18T12:30:59.696Z,101463.91
2019-02-18T12:33:31.954Z,101463.63
2019-02-18T12:36:04.329Z,101464.47
2019-02-18T12:38:37.434Z,101458.48
2019-02-18T12:41:15.751Z,101465.02
2019-02-18T12:43:47.762Z,101469.11
2019-02-18T12:46:21.938Z,101462.33
2019-02-18T12:48:52.131Z,101468.58
2019-02-18T12:51:23.311Z,101467.52
2019-02-18T12:53:53.438Z,101468.61
2019-02-18T12:56:31.951Z,101472.95
2019-02-18T12:59:08.968Z,101464.52
2019-02-18T13:01:51.726Z,101470.23
2019-02-18T13:04:27.371Z,101473.23
2019-02-18T13:07:03.111Z,101476.52
2019-02-18T13:09:34.103Z,101468.05
2019-02-18T13:12:09.533Z,101466.69
2019-02-18T13:14:40.627Z,101457.45
2019-02-18T13:17:11.882Z,101453.89
2019-02-18T13:19:43.706Z,101453.89
2019-02-18T13:22:23.623Z,101455.81
2019-02-18T13:24:55.862Z,101451.70
2019-02-18T13:27:33.238Z,101458.25
2019-02-18T13:30:03.338Z,101454.95
2019-02-18T13:32:42.629Z,101454.69
2019-02-18T13:35:12.646Z,101458.78
2019-02-18T13:37:42.522Z,101456.31
2019-02-18T13:40:12.099Z,101454.72
2019-02-18T13:42:41.145Z,101452.00
2019-02-18T13:45:15.874Z,101453.89
2019-02-18T13:47:46.891Z,101461.53
2019-02-18T13:50:24.165Z,101455.23
2019-02-18T13:52:57.708Z,101463.40
2019-02-18T13:55:35.116Z,101461.20
2019-02-18T13:58:04.778Z,101454.66
2019-02-18T14:00:40.937Z,101454.93
2019-02-18T14:03:10.997Z,101454.13
2019-02-18T14:05:42.995Z,101457.16
2019-02-18T14:08:15.679Z,101457.69
2019-02-18T14:10:54.990Z,101448.15
2019-02-18T14:13:24.461Z,101457.95
2019-02-18T14:16:00.138Z,101457.95
2019-02-18T14:18:34.013Z,101444.36
2019-02-18T14:21:05.015Z,101448.70
2019-02-18T14:23:38.747Z,101450.07
2019-02-18T14:26:13.487Z,101452.00
2019-02-18T14:28:48.159Z,101457.98
2019-02-18T14:31:20.773Z,101456.34
2019-02-18T14:33:52.196Z,101453.36
2019-02-18T14:36:24.979Z,101452.53
2019-02-18T14:38:58.479Z,101455.78
2019-02-18T14:41:30.581Z,101456.31
2019-02-18T14:44:09.514Z,101464.48
2019-02-18T14:46:51.240Z,101465.59
2019-02-18T14:49:26.117Z,101469.94
2019-02-18T14:52:06.206Z,101466.92
2019-02-18T14:54:53.611Z,101466.66
2019-02-18T14:57:24.300Z,101463.63
2019-02-18T14:59:53.669Z,101463.93
2019-02-18T15:02:28.372Z,101464.47
2019-02-18T15:04:58.569Z,101465.83
2019-02-18T15:07:29.479Z,101472.64
2019-02-18T15:09:59.742Z,101479.45
2019-02-18T15:12:33.257Z,101478.61
2019-02-18T15:15:02.930Z,101474.27
2019-02-18T15:17:46.937Z,101476.16
2019-02-18T15:20:20.325Z,101479.45
2019-02-18T15:22:50.517Z,101472.34
2019-02-18T15:25:21.790Z,101477.79
2019-02-18T15:27:52.720Z,101480.74
2019-02-18T15:30:22.538Z,101487.28
2019-02-18T15:32:54.822Z,101484.83
2019-02-18T15:35:27.506Z,101490.55
2019-02-18T15:37:59.610Z,101488.62
2019-02-18T15:40:29.149Z,101486.39
2019-02-18T15:43:00.841Z,101490.22
2019-02-18T15:45:31.003Z,101493.73
2019-02-18T15:48:02.112Z,101495.09
2019-02-18T15:50:36.142Z,101498.08
2019-02-18T15:53:07.328Z,101494.53
2019-02-18T15:55:38.839Z,101495.06
2019-02-18T15:58:09.834Z,101500.20
2019-02-18T16:03:23.951Z,101504.02
2019-02-18T16:05:55.719Z,101497.19
2019-02-18T16:08:30.262Z,101503.45
2019-02-18T16:11:06.593Z,101501.53
2019-02-18T16:13:38.598Z,101504.48
2019-02-18T16:16:10.545Z,101503.95
2019-02-18T16:18:41.690Z,101510.19
2019-02-18T16:21:14.641Z,101512.34
2019-02-18T16:23:46.118Z,101508.53
2019-02-18T16:26:19.769Z,101515.56
2019-02-18T16:28:55.039Z,101506.29
2019-02-18T16:31:30.601Z,101516.05
2019-02-18T16:34:02.551Z,101518.72
2019-02-18T16:36:32.485Z,101518.69
2019-02-18T16:39:05.431Z,101517.85
2019-02-18T16:41:41.570Z,101516.19
2019-02-18T16:44:11.583Z,101521.05
2019-02-18T16:46:44.741Z,101521.58
2019-02-18T16:49:22.579Z,101520.44
2019-02-18T16:51:52.492Z,101523.34
2019-02-18T16:54:25.321Z,101523.02
2019-02-18T16:57:02.444Z,101529.77
2019-02-18T16:59:31.548Z,101521.00
2019-02-18T17:02:18.316Z,101514.72
2019-02-18T17:04:47.798Z,101521.22
2019-02-18T17:07:18.587Z,101521.99
2019-02-18T17:09:50.619Z,101519.23
2019-02-18T17:12:21.249Z,101522.99
2019-02-18T17:15:05.915Z,101535.44
2019-02-18T17:17:41.067Z,101532.71
2019-02-18T17:20:11.720Z,101528.84
2019-02-18T17:23:10.826Z,101534.24
2019-02-18T17:25:41.217Z,101536.64
2019-02-18T17:28:13.807Z,101538.25
2019-02-18T17:30:49.199Z,101544.73
2019-02-18T17:33:21.574Z,101545.68
2019-02-18T17:35:52.568Z,101541.55
2019-02-18T17:38:26.112Z,101539.03
2019-02-18T17:40:58.778Z,101544.72
2019-02-18T17:43:32.845Z,101548.73
2019-02-18T17:46:13.222Z,101553.28
2019-02-18T17:48:45.485Z,101552.16
2019-02-18T17:51:19.030Z,101558.38
2019-02-18T17:53:52.872Z,101561.88
2019-02-18T17:56:28.949Z,101564.34
2019-02-18T17:59:05.296Z,101569.39
2019-02-18T18:01:36.298Z,101574.17
2019-02-18T18:04:08.397Z,101572.47
2019-02-18T18:06:42.270Z,101576.19
2019-02-18T18:11:51.270Z,101574.73
2019-02-18T18:14:28.282Z,101582.81
2019-02-18T18:17:06.905Z,101586.56
2019-02-18T18:19:36.340Z,101586.81
2019-02-18T18:22:14.479Z,101593.30
2019-02-18T18:24:52.080Z,101593.27
2019-02-18T18:27:22.915Z,101596.23
2019-02-18T18:30:02.782Z,101587.20
2019-02-18T18:32:36.006Z,101585.52
2019-02-18T18:35:05.999Z,101596.62
2019-02-18T18:37:40.179Z,101600.41
2019-02-18T18:40:11.957Z,101600.41
2019-02-18T18:42:43.098Z,101606.89
2019-02-18T18:45:19.466Z,101607.39
2019-02-18T18:48:01.190Z,101614.95
2019-02-18T18:50:32.687Z,101619.02
2019-02-18T18:53:06.040Z,101620.96
2019-02-18T18:55:47.894Z,101620.00
2019-02-18T18:58:25.490Z,101621.13
2019-02-18T19:01:01.721Z,101624.73
2019-02-18T19:03:37.094Z,101620.11
2019-02-18T19:06:10.647Z,101632.30
2019-02-18T19:08:47.702Z,101636.06
2019-02-18T19:11:20.386Z,101636.03
2019-02-18T19:13:55.984Z,101632.98
2019-02-18T19:16:28.683Z,101636.41
2019-02-18T19:19:02.958Z,101646.41
2019-02-18T19:21:34.779Z,101644.71
2019-02-18T19:24:08.750Z,101645.48
2019-02-18T19:26:43.700Z,101645.77
2019-02-18T19:29:15.841Z,101643.05
2019-02-18T19:31:45.985Z,101643.63
2019-02-18T19:34:21.071Z,101649.31
2019-02-18T19:36:53.476Z,101646.07
2019-02-18T19:39:27.587Z,101657.20
2019-02-18T19:41:58.907Z,101650.17
2019-02-18T19:44:28.254Z,101653.22
2019-02-18T19:47:00.982Z,101648.96
2019-02-18T19:49:36.723Z,101652.84
2019-02-18T19:52:06.762Z,101658.36
2019-02-18T19:54:45.383Z,101660.05
2019-02-18T19:57:17.528Z,101666.31
2019-02-18T19:59:50.122Z,101660.61
2019-02-18T20:02:21.719Z,101661.84
2019-02-18T20:04:51.237Z,101664.22
2019-02-18T20:07:21.478Z,101662.28
2019-02-18T20:09:53.946Z,101663.37
2019-02-18T20:12:26.599Z,101659.79
2019-02-18T20:14:56.974Z,101667.59
2019-02-18T20:17:30.015Z,101671.36
2019-02-18T20:20:07.198Z,101668.83
2019-02-18T20:22:48.029Z,101670.92
2019-02-18T20:25:19.311Z,101672.19
2019-02-18T20:27:59.077Z,101674.25
2019-02-18T20:30:36.270Z,101674.75
2019-02-18T20:33:07.488Z,101682.89
2019-02-18T20:35:38.080Z,101673.91
2019-02-18T20:38:16.345Z,101681.46
2019-02-18T20:40:48.049Z,101682.55
2019-02-18T20:43:18.209Z,101681.13
2019-02-18T20:45:49.760Z,101685.68
2019-02-18T20:48:23.123Z,101685.58
2019-02-18T20:50:55.846Z,101681.77
2019-02-18T20:53:30.838Z,101677.03
2019-02-18T20:58:39.741Z,101682.95
2019-02-18T21:01:14.938Z,101686.46
2019-02-18T21:03:50.083Z,101685.66
2019-02-18T21:06:20.649Z,101689.14
2019-02-18T21:09:00.408Z,101694.25
2019-02-18T21:11:31.538Z,101695.33
2019-02-18T21:14:14.351Z,101696.45
2019-02-18T21:16:44.537Z,101696.97
2019-02-18T21:19:18.763Z,101707.30
2019-02-18T21:21:50.671Z,101708.13
2019-02-18T21:24:23.356Z,101704.09
2019-02-18T21:26:56.390Z,101710.94
2019-02-18T21:29:27.654Z,101714.24
2019-02-18T21:32:00.012Z,101719.48
2019-02-18T21:34:31.580Z,101721.44
2019-02-18T21:37:05.499Z,101718.23
2019-02-18T21:39:36.961Z,101726.89
2019-02-18T21:42:07.627Z,101729.08
2019-02-18T21:44:43.546Z,101725.02
2019-02-18T21:47:14.960Z,101732.84
2019-02-18T21:49:58.603Z,101737.16
2019-02-18T21:52:40.310Z,101744.00
2019-02-18T21:55:16.869Z,101742.13
2019-02-18T21:57:51.667Z,101740.00
2019-02-18T22:00:24.257Z,101742.47
2019-02-18T22:02:55.496Z,101744.94
2019-02-18T22:05:27.465Z,101745.22
2019-02-18T22:08:04.510Z,101748.52
2019-02-18T22:10:41.836Z,101751.23
2019-02-18T22:13:23.538Z,101756.73
2019-02-18T22:16:02.346Z,101757.77
2019-02-18T22:18:34.174Z,101760.97
2019-02-18T22:21:04.918Z,101762.50
2019-02-18T22:23:36.017Z,101751.30
2019-02-18T22:26:08.840Z,101750.09
2019-02-18T22:28:51.213Z,101754.51
2019-02-18T22:31:20.545Z,101761.48
2019-02-18T22:33:56.761Z,101758.36
2019-02-18T22:36:28.284Z,101760.48
2019-02-18T22:38:57.980Z,101760.96
2019-02-18T22:41:39.593Z,101764.44
2019-02-18T22:44:10.473Z,101762.56
2019-02-18T22:46:43.513Z,101764.72
2019-02-18T22:49:17.897Z,101760.65
2019-02-18T22:51:52.820Z,101761.72
2019-02-18T22:54:26.512Z,101760.05
2019-02-18T22:56:55.916Z,101761.41
2019-02-18T22:59:25.534Z,101765.20
2019-02-18T23:01:56.270Z,101761.66
2019-02-18T23:04:26.070Z,101763.84
2019-02-18T23:06:58.541Z,101768.78
2019-02-18T23:09:28.604Z,101758.29
2019-02-18T23:12:02.412Z,101762.70
2019-02-18T23:14:32.461Z,101757.59
2019-02-18T23:17:03.434Z,101761.34
2019-02-18T23:19:38.204Z,101764.55
2019-02-18T23:22:10.197Z,101764.19
2019-02-18T23:24:42.642Z,101769.09
2019-02-18T23:27:14.913Z,101765.79
2019-02-18T23:29:49.822Z,101774.45
2019-02-18T23:32:20.771Z,101775.28
2019-02-18T23:35:02.003Z,101772.84
2019-02-18T23:37:34.340Z,101779.87
2019-02-18T23:40:03.940Z,101776.52
2019-02-18T23:42:34.481Z,101787.53
2019-02-18T23:45:08.390Z,101785.51
2019-02-18T23:47:45.549Z,101776.58
2019-02-18T23:50:15.114Z,101777.45
2019-02-18T23:52:46.514Z,101775.62
2019-02-18T23:55:16.317Z,101783.30
2019-02-18T23:57:47.258Z,101788.24
